Time;durP1;ratioP1;P1;durP2;ratioP2;P2;SDS_P1;SDS_P2;PMS_P1;PMS_P2;Temp;Humidity;BMP_temperature;BMP_pressure;BME280_temperature;BME280_humidity;BME280_pressure;Samples;Min_cycle;Max_cycle;Signal;HPM_P1;HPM_P2
2024/01/13 00:00:08;;;;;;;31.50;16.38;;;;;;;1.66;100.00;101879.16;5045326;28;20033;-83
2024/01/13 00:02:35;;;;;;;32.00;17.25;;;;;;;1.67;100.00;101877.44;5044162;28;20056;-82
2024/01/13 00:05:02;;;;;;;30.90;16.75;;;;;;;1.67;100.00;101878.34;5043637;28;20049;-81
2024/01/13 00:07:29;;;;;;;30.52;16.13;;;;;;;1.68;100.00;101863.72;5044244;28;20114;-82
2024/01/13 00:09:56;;;;;;;32.55;17.77;;;;;;;1.65;100.00;101873.06;5042019;28;20053;-81
2024/01/13 00:12:22;;;;;;;33.63;17.02;;;;;;;1.63;100.00;101868.66;5033965;28;20427;-83
2024/01/13 00:14:49;;;;;;;33.67;17.33;;;;;;;1.66;100.00;101868.81;5045743;28;20056;-83
2024/01/13 00:17:17;;;;;;;36.05;16.88;;;;;;;1.64;100.00;101863.59;5029505;28;20099;-81
2024/01/13 00:19:44;;;;;;;34.63;16.15;;;;;;;1.60;100.00;101864.25;5037416;28;20512;-83
2024/01/13 00:22:10;;;;;;;27.90;14.98;;;;;;;1.66;100.00;101861.06;5049904;28;20033;-83
2024/01/13 00:24:37;;;;;;;30.15;17.23;;;;;;;1.62;100.00;101861.75;5011388;28;20077;-82
2024/01/13 00:27:04;;;;;;;31.60;16.15;;;;;;;1.61;100.00;101847.94;5029353;28;20110;-82
2024/01/13 00:29:31;;;;;;;31.00;16.33;;;;;;;1.62;100.00;101844.56;5059067;28;20033;-83
2024/01/13 00:31:58;;;;;;;30.05;17.33;;;;;;;1.61;100.00;101840.19;5051861;28;20109;-82
2024/01/13 00:34:27;;;;;;;35.88;17.65;;;;;;;1.61;100.00;101834.16;5034953;28;20099;-83
2024/01/13 00:36:53;;;;;;;33.85;17.75;;;;;;;1.60;100.00;101833.28;5031856;28;20511;-83
2024/01/13 00:39:20;;;;;;;34.40;18.05;;;;;;;1.60;100.00;101829.81;5028604;28;20052;-81
2024/01/13 00:41:47;;;;;;;36.45;18.15;;;;;;;1.58;100.00;101826.28;5026761;28;20048;-82
2024/01/13 00:44:13;;;;;;;36.30;18.55;;;;;;;1.61;100.00;101823.84;5031087;28;20140;-83
2024/01/13 00:46:41;;;;;;;30.85;16.48;;;;;;;1.62;100.00;101833.34;5031434;28;20068;-82
2024/01/13 00:49:07;;;;;;;33.53;16.30;;;;;;;1.62;100.00;101829.06;5033272;28;20045;-81
2024/01/13 00:51:35;;;;;;;34.45;17.98;;;;;;;1.62;100.00;101829.06;5034293;28;20055;-82
2024/01/13 00:54:06;;;;;;;25.10;15.43;;;;;;;1.64;100.00;101831.72;5054029;28;20062;-81
2024/01/13 00:56:34;;;;;;;32.38;15.40;;;;;;;1.62;100.00;101825.63;5049206;28;20067;-83
2024/01/13 00:59:01;;;;;;;29.15;15.90;;;;;;;1.61;100.00;101824.72;5053976;28;20147;-82
2024/01/13 01:01:27;;;;;;;26.65;15.70;;;;;;;1.65;100.00;101820.59;5050203;28;20048;-81
2024/01/13 01:03:54;;;;;;;25.58;13.35;;;;;;;1.61;100.00;101821.25;5035732;28;20131;-82
2024/01/13 01:06:21;;;;;;;27.25;14.85;;;;;;;1.65;100.00;101823.16;5027111;28;20121;-82
2024/01/13 01:08:50;;;;;;;23.85;13.70;;;;;;;1.64;100.00;101826.56;5051203;28;20037;-82
2024/01/13 01:11:16;;;;;;;26.20;14.27;;;;;;;1.63;100.00;101819.63;5034270;28;20044;-82
2024/01/13 01:13:43;;;;;;;39.28;15.55;;;;;;;1.64;100.00;101824.88;5052139;28;20109;-81
2024/01/13 01:16:10;;;;;;;23.25;12.48;;;;;;;1.62;100.00;101816.16;5048516;28;20404;-82
2024/01/13 01:18:37;;;;;;;24.65;12.65;;;;;;;1.63;100.00;101817.94;5045461;28;20047;-82
2024/01/13 01:21:05;;;;;;;28.15;12.75;;;;;;;1.66;100.00;101824.94;5032884;28;20052;-81
2024/01/13 01:23:32;;;;;;;22.08;12.18;;;;;;;1.67;100.00;101813.81;5050878;28;20044;-81
2024/01/13 01:26:01;;;;;;;22.90;12.52;;;;;;;1.65;100.00;101807.69;5052056;28;20036;-82
2024/01/13 01:28:28;;;;;;;26.13;12.50;;;;;;;1.68;100.00;101806.94;5032967;28;20041;-81
2024/01/13 01:30:54;;;;;;;17.90;10.07;;;;;;;1.69;100.00;101808.72;5037324;28;20068;-81
2024/01/13 01:33:21;;;;;;;18.98;11.15;;;;;;;1.64;100.00;101799.06;5065758;28;20051;-82
2024/01/13 01:35:48;;;;;;;20.33;12.52;;;;;;;1.66;100.00;101796.53;5033928;28;20052;-83
2024/01/13 01:38:14;;;;;;;18.50;10.70;;;;;;;1.67;100.00;101797.41;5030039;28;20172;-83
2024/01/13 01:40:43;;;;;;;14.93;9.77;;;;;;;1.65;100.00;101785.31;5033181;28;20106;-81
2024/01/13 01:43:11;;;;;;;14.70;9.57;;;;;;;1.65;100.00;101782.72;5063313;28;20559;-81
2024/01/13 01:45:38;;;;;;;19.83;9.68;;;;;;;1.64;100.00;101778.41;5064211;28;20049;-83
2024/01/13 01:48:08;;;;;;;20.00;9.93;;;;;;;1.69;100.00;101780.31;5046344;28;20048;-82
2024/01/13 01:50:35;;;;;;;14.48;8.63;;;;;;;1.64;100.00;101775.84;5025166;28;20102;-82
2024/01/13 01:53:02;;;;;;;15.70;9.07;;;;;;;1.71;100.00;101770.91;5034770;28;20406;-82
2024/01/13 01:55:29;;;;;;;14.82;9.05;;;;;;;1.69;100.00;101770.84;5021819;28;20049;-82
2024/01/13 01:57:59;;;;;;;14.00;8.18;;;;;;;1.72;100.00;101762.38;5011240;28;20140;-82
2024/01/13 02:00:26;;;;;;;17.85;9.25;;;;;;;1.74;100.00;101756.47;5042631;28;20048;-82
2024/01/13 02:02:53;;;;;;;11.85;7.68;;;;;;;1.72;100.00;101752.03;5029989;28;20106;-82
2024/01/13 02:05:22;;;;;;;15.00;7.55;;;;;;;1.73;100.00;101748.66;5043123;28;20045;-81
2024/01/13 02:07:50;;;;;;;14.38;8.30;;;;;;;1.71;100.00;101745.09;5011459;28;20063;-82
2024/01/13 02:10:18;;;;;;;15.88;8.80;;;;;;;1.71;100.00;101745.09;5033443;28;20087;-81
2024/01/13 02:12:46;;;;;;;11.73;7.60;;;;;;;1.70;100.00;101743.38;5013192;28;20372;-82
2024/01/13 02:15:12;;;;;;;13.13;7.78;;;;;;;1.64;100.00;101733.63;5026675;28;20045;-82
2024/01/13 02:17:39;;;;;;;11.88;7.95;;;;;;;1.63;100.00;101737.91;5027798;28;20052;-82
2024/01/13 02:20:08;;;;;;;11.15;7.45;;;;;;;1.65;100.00;101735.41;5014645;28;20052;-81
2024/01/13 02:22:35;;;;;;;13.30;6.82;;;;;;;1.66;100.00;101747.50;5033520;28;20053;-80
2024/01/13 02:25:05;;;;;;;14.57;7.95;;;;;;;1.62;100.00;101743.03;5012126;28;20073;-82
2024/01/13 02:27:32;;;;;;;14.63;8.65;;;;;;;1.63;100.00;101743.09;5014473;28;20442;-82
2024/01/13 02:30:00;;;;;;;12.45;7.60;;;;;;;1.65;100.00;101740.56;5012415;28;20428;-81
2024/01/13 02:32:26;;;;;;;11.02;8.02;;;;;;;1.68;100.00;101732.06;5042214;28;20076;-81
2024/01/13 02:34:53;;;;;;;12.88;7.43;;;;;;;1.66;100.00;101734.59;5011825;28;20057;-81
2024/01/13 02:37:20;;;;;;;20.00;8.75;;;;;;;1.68;100.00;101734.66;5031954;28;20045;-83
2024/01/13 02:39:46;;;;;;;14.82;7.60;;;;;;;1.66;100.00;101724.28;5015563;28;20049;-82
2024/01/13 02:42:13;;;;;;;13.18;7.40;;;;;;;1.63;100.00;101714.69;5014669;28;20053;-82
2024/01/13 02:44:39;;;;;;;11.50;7.35;;;;;;;1.60;100.00;101705.91;5026116;28;20564;-81
2024/01/13 02:47:06;;;;;;;13.57;7.00;;;;;;;1.62;100.00;101707.75;5027518;28;20063;-81
2024/01/13 02:49:33;;;;;;;10.43;6.63;;;;;;;1.59;100.00;101706.72;5029354;28;20045;-81
2024/01/13 02:52:02;;;;;;;13.88;7.53;;;;;;;1.61;100.00;101698.25;5043448;28;20040;-81
2024/01/13 02:54:29;;;;;;;11.30;7.97;;;;;;;1.57;100.00;101686.03;5035268;28;20051;-83
2024/01/13 02:57:00;;;;;;;11.35;7.55;;;;;;;1.55;100.00;101689.34;5048953;28;20033;-81
2024/01/13 02:59:26;;;;;;;13.32;7.30;;;;;;;1.54;100.00;101687.56;5043827;28;20053;-81
2024/01/13 03:01:53;;;;;;;14.00;7.40;;;;;;;1.54;100.00;101685.00;5031440;28;20076;-81
2024/01/13 03:04:20;;;;;;;13.30;8.02;;;;;;;1.55;100.00;101685.09;5052614;28;20044;-81
2024/01/13 03:06:46;;;;;;;14.00;7.70;;;;;;;1.53;100.00;101683.25;5047720;28;20064;-81
2024/01/13 03:09:13;;;;;;;11.98;7.43;;;;;;;1.53;100.00;101673.81;5016322;28;20083;-82
2024/01/13 03:11:40;;;;;;;13.60;7.90;;;;;;;1.50;100.00;101673.69;5029583;28;20075;-81
2024/01/13 03:14:07;;;;;;;9.13;7.43;;;;;;;1.49;100.00;101661.59;5031418;28;20076;-82
2024/01/13 03:16:33;;;;;;;12.18;8.32;;;;;;;1.52;100.00;101663.41;5023793;28;20047;-81
2024/01/13 03:19:02;;;;;;;13.38;8.23;;;;;;;1.51;100.00;101666.81;5026186;28;20071;-81
2024/01/13 03:21:29;;;;;;;11.05;7.45;;;;;;;1.52;100.00;101656.53;5050249;28;20086;-81
2024/01/13 03:23:55;;;;;;;11.43;6.78;;;;;;;1.50;100.00;101650.44;5028773;28;20384;-82
2024/01/13 03:26:22;;;;;;;8.50;6.35;;;;;;;1.52;100.00;101647.94;5024090;28;20052;-82
2024/01/13 03:28:49;;;;;;;11.32;7.35;;;;;;;1.51;100.00;101641.00;5045633;28;20049;-81
2024/01/13 03:31:15;;;;;;;16.17;6.70;;;;;;;1.47;100.00;101640.88;5045564;28;20095;-81
2024/01/13 03:33:42;;;;;;;9.60;6.13;;;;;;;1.48;100.00;101639.16;5060652;28;20040;-82
2024/01/13 03:36:10;;;;;;;11.45;6.68;;;;;;;1.47;100.00;101634.81;5045763;28;20141;-81
2024/01/13 03:38:41;;;;;;;10.25;6.82;;;;;;;1.41;100.00;101625.13;5065426;28;20070;-82
2024/01/13 03:41:08;;;;;;;11.50;6.95;;;;;;;1.44;100.00;101632.97;5033642;28;20128;-82
2024/01/13 03:43:34;;;;;;;11.52;6.00;;;;;;;1.46;100.00;101631.38;5045649;28;20056;-81
2024/01/13 03:46:01;;;;;;;9.27;5.72;;;;;;;1.48;100.00;101628.84;5048421;28;20068;-81
2024/01/13 03:48:28;;;;;;;7.13;4.60;;;;;;;1.50;100.00;101634.97;5037375;28;20385;-81
2024/01/13 03:50:55;;;;;;;7.82;4.57;;;;;;;1.54;100.00;101630.81;5029615;28;20122;-83
2024/01/13 03:53:21;;;;;;;9.65;5.55;;;;;;;1.50;100.00;101624.66;5027879;28;20038;-81
2024/01/13 03:55:48;;;;;;;8.25;5.20;;;;;;;1.51;100.00;101628.09;5024486;28;20524;-82
2024/01/13 03:58:14;;;;;;;11.82;5.97;;;;;;;1.52;100.00;101622.13;5033985;28;20071;-80
2024/01/13 04:00:41;;;;;;;8.95;5.22;;;;;;;1.48;100.00;101621.97;5047340;28;20049;-81
2024/01/13 04:03:07;;;;;;;7.68;4.95;;;;;;;1.50;100.00;101627.22;5018891;28;20097;-81
2024/01/13 04:05:35;;;;;;;8.32;5.07;;;;;;;1.49;100.00;101625.47;5029900;28;20167;-82
2024/01/13 04:08:01;;;;;;;7.53;5.15;;;;;;;1.44;100.00;101624.38;5018480;28;20033;-81
2024/01/13 04:10:28;;;;;;;5.82;4.22;;;;;;;1.41;100.00;101611.31;5046473;28;20110;-81
2024/01/13 04:12:57;;;;;;;5.15;3.78;;;;;;;1.41;100.00;101619.06;5008602;28;20105;-81
2024/01/13 04:15:24;;;;;;;7.40;4.75;;;;;;;1.38;100.00;101601.75;5001070;28;20056;-82
2024/01/13 04:17:50;;;;;;;6.45;4.35;;;;;;;1.38;100.00;101601.75;5013058;28;20149;-81
2024/01/13 04:20:20;;;;;;;6.35;4.65;;;;;;;1.35;100.00;101595.59;5026961;28;20048;-81
2024/01/13 04:22:47;;;;;;;6.80;4.40;;;;;;;1.41;100.00;101606.16;5012350;28;20570;-82
2024/01/13 04:25:13;;;;;;;8.27;4.57;;;;;;;1.42;100.00;101605.34;5020048;28;20092;-83
2024/01/13 04:27:40;;;;;;;7.65;4.63;;;;;;;1.38;100.00;101595.72;5042544;28;20037;-83
2024/01/13 04:30:10;;;;;;;9.10;4.13;;;;;;;1.35;100.00;101587.84;5029925;28;20081;-82
2024/01/13 04:32:38;;;;;;;6.78;3.53;;;;;;;1.37;100.00;101584.53;5015458;28;20044;-83
2024/01/13 04:35:09;;;;;;;5.90;4.18;;;;;;;1.39;100.00;101577.72;5028892;28;20037;-82
2024/01/13 04:37:36;;;;;;;3.83;2.97;;;;;;;1.37;100.00;101576.78;5027841;28;20124;-81
2024/01/13 04:40:03;;;;;;;5.45;2.95;;;;;;;1.37;100.00;101571.63;5046499;28;20095;-82
2024/01/13 04:42:31;;;;;;;6.95;3.67;;;;;;;1.37;100.00;101576.78;5009723;28;20046;-82
2024/01/13 04:45:05;;;;;;;8.98;3.28;;;;;;;1.41;100.00;101581.25;5033400;28;20049;-81
2024/01/13 04:47:37;;;;;;;6.55;4.00;;;;;;;1.42;100.00;101582.13;5008960;28;20068;-82
2024/01/13 04:50:04;;;;;;;6.53;3.40;;;;;;;1.42;100.00;101569.22;5036106;28;20056;-81
2024/01/13 04:52:33;;;;;;;5.60;3.40;;;;;;;1.37;100.00;101563.88;5057785;28;20049;-81
2024/01/13 04:55:00;;;;;;;5.78;4.00;;;;;;;1.36;100.00;101569.84;5048416;28;21665;-82
2024/01/13 04:57:27;;;;;;;4.03;3.38;;;;;;;1.36;100.00;101566.41;5030223;28;20052;-82
2024/01/13 04:59:53;;;;;;;4.13;3.35;;;;;;;1.39;100.00;101563.94;5033911;28;20049;-82
2024/01/13 05:02:20;;;;;;;4.45;2.97;;;;;;;1.38;100.00;101563.03;5029902;28;20048;-82
2024/01/13 05:04:48;;;;;;;4.47;2.80;;;;;;;1.45;100.00;101567.66;5047893;28;20045;-81
2024/01/13 05:07:15;;;;;;;3.13;2.25;;;;;;;1.42;100.00;101564.97;5049615;28;20028;-81
2024/01/13 05:09:42;;;;;;;2.50;2.28;;;;;;;1.46;100.00;101561.69;5031439;28;20679;-82
2024/01/13 05:12:08;;;;;;;4.40;2.40;;;;;;;1.43;100.00;101552.94;5045092;28;20117;-82
2024/01/13 05:14:38;;;;;;;3.70;2.42;;;;;;;1.42;100.00;101553.75;5073215;28;20131;-81
2024/01/13 05:17:07;;;;;;;2.90;2.40;;;;;;;1.45;100.00;101557.34;5051960;28;20125;-82
2024/01/13 05:19:34;;;;;;;3.60;1.80;;;;;;;1.44;100.00;101555.56;5045952;28;20045;-81
2024/01/13 05:22:00;;;;;;;3.60;1.85;;;;;;;1.41;100.00;101552.88;5053757;28;20072;-81
2024/01/13 05:24:27;;;;;;;3.25;2.33;;;;;;;1.37;100.00;101548.41;5058961;28;20044;-81
2024/01/13 05:26:54;;;;;;;3.35;2.30;;;;;;;1.40;100.00;101555.41;5027975;28;20460;-81
2024/01/13 05:29:20;;;;;;;1.92;1.83;;;;;;;1.37;100.00;101550.09;5047943;28;20095;-82
2024/01/13 05:31:50;;;;;;;3.75;1.92;;;;;;;1.39;100.00;101557.06;5049146;28;20048;-81
2024/01/13 05:34:19;;;;;;;3.15;2.03;;;;;;;1.40;100.00;101550.25;5030831;28;20130;-81
2024/01/13 05:36:49;;;;;;;2.53;2.30;;;;;;;1.42;100.00;101551.16;5056996;28;20040;-82
2024/01/13 05:39:19;;;;;;;2.30;1.92;;;;;;;1.40;100.00;101542.50;5047311;28;20113;-81
2024/01/13 05:41:45;;;;;;;2.58;2.25;;;;;;;1.40;100.00;101548.53;5033170;28;20076;-82
2024/01/13 05:44:12;;;;;;;1.73;1.52;;;;;;;1.37;100.00;101538.09;5062830;28;20110;-83
2024/01/13 05:46:39;;;;;;;2.70;1.92;;;;;;;1.38;100.00;101544.13;5035752;28;20052;-84
2024/01/13 05:49:05;;;;;;;3.53;2.30;;;;;;;1.41;100.00;101531.34;5041775;28;20075;-82
2024/01/13 05:51:36;;;;;;;4.47;2.28;;;;;;;1.40;100.00;101535.63;5025840;28;20515;-81
2024/01/13 05:54:05;;;;;;;3.10;2.00;;;;;;;1.40;100.00;101534.75;5026902;28;20588;-83
2024/01/13 05:56:32;;;;;;;3.10;2.28;;;;;;;1.41;100.00;101534.81;5032308;28;20049;-82
2024/01/13 05:59:00;;;;;;;3.85;2.08;;;;;;;1.41;100.00;101528.75;5045301;28;20037;-82
2024/01/13 06:01:26;;;;;;;3.90;2.17;;;;;;;1.38;100.00;101523.47;5012406;28;20053;-81
2024/01/13 06:03:53;;;;;;;5.35;3.03;;;;;;;1.44;100.00;101528.91;5002677;28;20496;-81
2024/01/13 06:06:20;;;;;;;3.70;2.47;;;;;;;1.43;100.00;101525.44;5026668;28;20160;-82
2024/01/13 06:08:49;;;;;;;4.03;2.75;;;;;;;1.46;100.00;101524.66;5036205;28;20068;-82
2024/01/13 06:11:16;;;;;;;2.45;2.13;;;;;;;1.49;100.00;101519.66;5034419;28;20139;-83
2024/01/13 06:13:43;;;;;;;2.95;2.65;;;;;;;1.51;100.00;101522.31;5017025;28;20059;-81
2024/01/13 06:16:10;;;;;;;3.05;2.75;;;;;;;1.50;100.00;101521.44;5011847;28;20052;-82
2024/01/13 06:18:37;;;;;;;3.92;2.25;;;;;;;1.42;100.00;101510.78;5032628;28;20041;-81
2024/01/13 06:21:04;;;;;;;2.35;1.70;;;;;;;1.46;100.00;101511.78;5012491;28;20635;-83
2024/01/13 06:23:30;;;;;;;3.50;2.33;;;;;;;1.43;100.00;101512.53;5009295;28;20049;-81
2024/01/13 06:26:00;;;;;;;4.30;2.92;;;;;;;1.41;100.00;101502.94;5043756;28;20547;-81
2024/01/13 06:28:28;;;;;;;2.80;2.13;;;;;;;1.41;100.00;101505.53;5024981;28;20037;-82
2024/01/13 06:30:56;;;;;;;2.42;1.90;;;;;;;1.41;100.00;101501.28;5027272;28;20049;-81
2024/01/13 06:33:23;;;;;;;2.70;2.50;;;;;;;1.41;100.00;101506.44;5028889;28;20096;-82
2024/01/13 06:35:50;;;;;;;2.95;2.50;;;;;;;1.43;100.00;101507.38;5012189;28;20110;-81
2024/01/13 06:38:16;;;;;;;2.42;2.20;;;;;;;1.39;100.00;101502.03;5008863;28;20092;-81
2024/01/13 06:40:45;;;;;;;2.47;2.22;;;;;;;1.39;100.00;101507.19;5013276;28;20458;-81
2024/01/13 06:43:13;;;;;;;2.30;2.10;;;;;;;1.40;100.00;101502.09;5009294;28;20056;-82
2024/01/13 06:45:40;;;;;;;1.73;1.63;;;;;;;1.37;100.00;101485.59;5013584;28;20664;-83
2024/01/13 06:48:10;;;;;;;2.17;2.03;;;;;;;1.35;100.00;101475.22;5018806;28;20436;-83
2024/01/13 06:50:40;;;;;;;2.53;1.80;;;;;;;1.38;100.00;101461.56;5035891;28;20064;-83
2024/01/13 06:53:07;;;;;;;2.92;2.20;;;;;;;1.35;100.00;101456.28;5035160;28;20048;-83
2024/01/13 06:55:34;;;;;;;2.63;2.20;;;;;;;1.34;100.00;101449.34;5029852;28;20049;-82
2024/01/13 06:58:00;;;;;;;3.13;1.50;;;;;;;1.36;100.00;101447.75;5025634;28;20045;-82
2024/01/13 07:00:27;;;;;;;1.83;1.73;;;;;;;1.33;100.00;101451.06;5038697;28;20049;-82
2024/01/13 07:02:53;;;;;;;1.98;1.58;;;;;;;1.25;100.00;101422.38;5056222;28;20052;-82
2024/01/13 07:05:22;;;;;;;2.72;1.63;;;;;;;1.30;100.00;101423.44;5047420;28;20584;-84
2024/01/13 07:07:51;;;;;;;3.28;1.90;;;;;;;1.32;100.00;101419.22;5029542;28;20099;-83
2024/01/13 07:10:18;;;;;;;3.38;1.42;;;;;;;1.35;100.00;101417.59;5043024;28;20061;-83
2024/01/13 07:12:50;;;;;;;2.55;1.88;;;;;;;1.33;100.00;101414.94;5043457;28;20619;-82
2024/01/13 07:15:17;;;;;;;1.85;1.63;;;;;;;1.38;100.00;101404.81;5055977;28;20695;-82
2024/01/13 07:17:43;;;;;;;2.53;2.08;;;;;;;1.32;100.00;101396.00;5061684;28;20492;-82
2024/01/13 07:20:13;;;;;;;1.52;1.42;;;;;;;1.31;100.00;101378.75;5047123;28;20048;-82
2024/01/13 07:22:41;;;;;;;2.53;1.92;;;;;;;1.34;100.00;101372.84;5032137;28;20135;-83
2024/01/13 07:25:08;;;;;;;2.13;2.03;;;;;;;1.31;100.00;101370.16;5042661;28;20491;-82
2024/01/13 07:27:35;;;;;;;2.53;1.85;;;;;;;1.40;100.00;101378.25;5032632;28;20577;-82
2024/01/13 07:30:04;;;;;;;2.33;1.67;;;;;;;1.37;100.00;101367.81;5054108;28;20045;-80
2024/01/13 07:32:31;;;;;;;2.78;1.80;;;;;;;1.37;100.00;101365.25;5063579;28;20048;-82
2024/01/13 07:34:57;;;;;;;2.35;1.40;;;;;;;1.40;100.00;101370.50;5042713;28;20045;-83
2024/01/13 07:37:24;;;;;;;2.05;1.55;;;;;;;1.44;100.00;101362.06;5030285;28;20064;-82
2024/01/13 07:39:51;;;;;;;1.30;1.05;;;;;;;1.43;100.00;101369.75;5066511;28;20489;-81
2024/01/13 07:42:17;;;;;;;1.60;1.05;;;;;;;1.46;100.00;101362.13;5037479;28;20056;-82
2024/01/13 07:44:44;;;;;;;2.80;1.20;;;;;;;1.53;100.00;101360.69;5047204;28;20099;-82
2024/01/13 07:47:11;;;;;;;1.48;1.13;;;;;;;1.60;100.00;101367.84;5060116;28;20132;-82
2024/01/13 07:49:37;;;;;;;1.10;1.00;;;;;;;1.64;100.00;101380.94;5033263;28;20045;-84
2024/01/13 07:52:09;;;;;;;1.02;0.98;;;;;;;1.63;100.00;101383.44;5048665;28;20130;-82
2024/01/13 07:54:35;;;;;;;2.03;1.00;;;;;;;1.67;100.00;101368.94;5032208;28;20056;-84
2024/01/13 07:57:04;;;;;;;1.42;1.20;;;;;;;1.71;100.00;101370.81;5057546;28;20037;-83
2024/01/13 07:59:30;;;;;;;1.63;0.80;;;;;;;1.72;100.00;101360.59;5067280;28;20068;-82
2024/01/13 08:02:04;;;;;;;0.70;0.65;;;;;;;1.75;100.00;101360.69;5047997;28;20044;-81
2024/01/13 08:04:31;;;;;;;0.90;0.73;;;;;;;1.79;100.00;101349.66;5037882;28;20074;-82
2024/01/13 08:06:57;;;;;;;1.80;1.67;;;;;;;1.83;100.00;101352.38;5025488;28;20056;-83
2024/01/13 08:09:24;;;;;;;0.80;0.80;;;;;;;1.84;100.00;101355.00;5038971;28;20045;-82
2024/01/13 08:11:54;;;;;;;0.68;0.68;;;;;;;1.84;100.00;101355.00;5037757;28;20052;-84
2024/01/13 08:14:20;;;;;;;1.40;1.15;;;;;;;1.87;100.00;101347.38;5035680;28;20407;-82
2024/01/13 08:16:49;;;;;;;1.10;0.88;;;;;;;1.90;100.00;101344.91;5051633;28;20032;-82
2024/01/13 08:19:16;;;;;;;1.38;0.90;;;;;;;1.83;100.00;101347.22;5049994;28;20068;-82
2024/01/13 08:21:42;;;;;;;2.08;1.05;;;;;;;1.88;100.00;101348.25;5035663;28;20068;-81
2024/01/13 08:24:09;;;;;;;2.00;1.33;;;;;;;1.90;100.00;101341.44;5030947;28;20071;-82
2024/01/13 08:26:37;;;;;;;0.95;0.95;;;;;;;1.90;100.00;101336.28;5032593;28;20745;-82
2024/01/13 08:29:04;;;;;;;2.17;1.52;;;;;;;1.88;100.00;101333.66;5064981;28;20499;-80
2024/01/13 08:31:30;;;;;;;1.48;1.38;;;;;;;1.88;100.00;101337.91;5045620;28;20044;-81
2024/01/13 08:33:57;;;;;;;5.55;2.05;;;;;;;1.89;100.00;101335.41;5044720;28;20040;-83
2024/01/13 08:36:23;;;;;;;2.10;2.00;;;;;;;1.90;100.00;101333.69;5031820;28;20515;-84
2024/01/13 08:38:50;;;;;;;2.05;1.83;;;;;;;1.86;100.00;101324.94;5044526;28;20059;-82
2024/01/13 08:41:17;;;;;;;2.70;2.50;;;;;;;1.89;100.00;101317.34;5040859;28;20067;-82
2024/01/13 08:43:46;;;;;;;3.25;1.90;;;;;;;1.81;100.00;101329.97;5048524;28;20518;-80
2024/01/13 08:46:13;;;;;;;1.73;1.45;;;;;;;1.84;100.00;101344.69;5029832;28;20127;-81
2024/01/13 08:48:40;;;;;;;1.90;1.80;;;;;;;1.88;100.00;101346.56;5061663;28;20037;-83
2024/01/13 08:51:09;;;;;;;1.80;1.63;;;;;;;1.91;100.00;101345.78;5046379;28;20044;-82
2024/01/13 08:53:39;;;;;;;2.03;1.92;;;;;;;1.93;100.00;101339.88;5048758;28;20130;-83
2024/01/13 08:56:08;;;;;;;2.35;1.67;;;;;;;1.99;100.00;101313.38;5031596;28;20128;-83
2024/01/13 08:58:35;;;;;;;2.38;2.03;;;;;;;2.00;100.00;101278.13;5029400;28;20161;-83
2024/01/13 09:01:02;;;;;;;1.85;1.73;;;;;;;2.08;100.00;101294.75;5036130;28;20048;-83
2024/01/13 09:03:29;;;;;;;1.70;1.60;;;;;;;2.08;100.00;101285.31;5023833;28;20579;-82
2024/01/13 09:05:57;;;;;;;3.33;2.40;;;;;;;2.09;100.00;101287.06;5030332;28;20072;-81
2024/01/13 09:08:23;;;;;;;2.03;1.85;;;;;;;2.20;100.00;101274.53;5016093;28;20048;-81
2024/01/13 09:10:53;;;;;;;2.00;1.85;;;;;;;2.14;100.00;101275.19;5027378;28;20048;-81
2024/01/13 09:13:19;;;;;;;3.92;2.28;;;;;;;2.16;100.00;101293.31;5026876;28;20156;-82
2024/01/13 09:15:51;;;;;;;4.05;2.30;;;;;;;2.16;100.00;101293.31;5045101;28;20044;-82
2024/01/13 09:18:18;;;;;;;3.25;2.60;;;;;;;2.11;100.00;101284.53;5042655;28;20061;-82
2024/01/13 09:20:45;;;;;;;3.00;2.55;;;;;;;2.17;100.00;101270.97;5019909;28;20072;-81
2024/01/13 09:23:12;;;;;;;3.80;2.65;;;;;;;2.14;100.00;101262.28;5012409;28;20237;-82
2024/01/13 09:25:38;;;;;;;6.55;3.00;;;;;;;2.14;100.00;101256.25;5010520;28;20056;-82
2024/01/13 09:28:05;;;;;;;3.53;2.90;;;;;;;2.11;100.00;101256.13;5014787;28;20048;-82
2024/01/13 09:30:35;;;;;;;4.82;3.40;;;;;;;2.11;100.00;101274.19;5028284;28;20038;-82
2024/01/13 09:33:02;;;;;;;3.95;3.45;;;;;;;2.23;100.00;101261.72;5018194;28;20472;-82
2024/01/13 09:35:30;;;;;;;4.20;3.50;;;;;;;2.19;100.00;101256.41;5014350;28;20094;-81
2024/01/13 09:37:59;;;;;;;6.30;4.43;;;;;;;2.15;100.00;101245.97;5010228;28;20045;-82
2024/01/13 09:40:26;;;;;;;5.43;4.35;;;;;;;2.13;100.00;101236.41;5047666;28;20065;-81
2024/01/13 09:43:13;;;;;;;5.85;4.05;;;;;;;2.18;100.00;101224.53;5027249;28;20045;-82
2024/01/13 09:45:42;;;;;;;4.53;3.22;;;;;;;2.22;100.00;101228.97;5013210;28;20395;-81
2024/01/13 09:48:09;;;;;;;4.68;4.07;;;;;;;2.24;100.00;101218.69;5047087;28;20495;-83
2024/01/13 09:50:39;;;;;;;3.70;2.80;;;;;;;2.23;100.00;101199.75;5045817;28;20865;-81
2024/01/13 09:53:09;;;;;;;5.45;3.80;;;;;;;2.24;100.00;101216.09;5028605;28;20063;-82
2024/01/13 09:55:39;;;;;;;4.55;3.30;;;;;;;2.32;100.00;101230.16;5029177;28;20412;-83
2024/01/13 09:58:07;;;;;;;3.38;3.17;;;;;;;2.29;100.00;101227.47;5045133;28;20171;-83
2024/01/13 10:00:37;;;;;;;4.32;3.10;;;;;;;2.27;100.00;101235.19;5043889;28;20358;-82
2024/01/13 10:03:04;;;;;;;4.93;4.43;;;;;;;2.28;100.00;101242.09;5030445;28;20066;-82
2024/01/13 10:05:31;;;;;;;3.60;3.20;;;;;;;2.15;100.00;101235.63;5043690;28;20500;-83
2024/01/13 10:07:58;;;;;;;5.20;4.25;;;;;;;2.09;100.00;101245.75;5040525;28;20057;-83
2024/01/13 10:10:25;;;;;;;6.00;4.20;;;;;;;2.20;100.00;101245.25;5057280;28;20056;-83
2024/01/13 10:12:52;;;;;;;9.05;5.78;;;;;;;2.21;100.00;101244.44;5046171;28;20401;-83
2024/01/13 10:15:19;;;;;;;5.40;4.53;;;;;;;2.20;100.00;101253.00;5028168;28;20055;-83
2024/01/13 10:17:46;;;;;;;5.38;4.35;;;;;;;2.20;100.00;101256.44;5035117;28;20049;-83
2024/01/13 10:20:17;;;;;;;6.15;4.22;;;;;;;2.33;100.00;101256.88;5061305;28;20053;-83
2024/01/13 10:22:43;;;;;;;7.45;5.10;;;;;;;2.41;100.00;101250.25;5040907;28;20185;-82
2024/01/13 10:25:10;;;;;;;5.28;4.05;;;;;;;2.41;100.00;101235.66;5044312;28;20496;-83
2024/01/13 10:27:38;;;;;;;5.95;4.85;;;;;;;2.59;100.00;101227.59;5037394;28;20053;-83
2024/01/13 10:30:10;;;;;;;10.10;4.60;;;;;;;2.61;100.00;101214.75;5026542;28;20072;-81
2024/01/13 10:32:37;;;;;;;8.00;6.07;;;;;;;2.59;100.00;101208.66;5028372;28;20053;-85
2024/01/13 10:35:07;;;;;;;5.65;4.15;;;;;;;2.57;100.00;101192.19;5022311;28;20064;-82
2024/01/13 10:37:38;;;;;;;7.13;4.95;;;;;;;2.64;100.00;101196.75;5041901;28;20059;-83
2024/01/13 10:40:06;;;;;;;6.38;4.07;;;;;;;2.66;100.00;101184.78;5023691;28;20049;-82
2024/01/13 10:42:38;;;;;;;6.22;4.72;;;;;;;2.66;100.00;101182.19;5019801;28;20424;-82
2024/01/13 10:45:09;;;;;;;5.35;3.95;;;;;;;2.69;100.00;101176.25;5044803;28;20053;-84
2024/01/13 10:47:42;;;;;;;8.50;4.20;;;;;;;2.71;100.00;101178.03;5042051;28;20052;-81
2024/01/13 10:50:11;;;;;;;9.60;4.93;;;;;;;2.69;100.00;101169.34;5032890;28;20125;-82
2024/01/13 10:52:58;;;;;;;7.03;4.93;;;;;;;2.67;100.00;101165.81;5040111;28;20101;-82
2024/01/13 10:55:25;;;;;;;8.80;4.10;;;;;;;2.65;100.00;101163.19;5034241;28;20482;-81
2024/01/13 10:57:57;;;;;;;5.60;4.30;;;;;;;2.59;100.00;101165.56;5025752;28;20142;-82
2024/01/13 11:00:25;;;;;;;6.40;4.78;;;;;;;2.58;100.00;101153.50;5032256;28;20411;-82
2024/01/13 11:02:56;;;;;;;6.47;4.22;;;;;;;2.55;100.00;101152.53;5008715;28;20052;-83
2024/01/13 11:05:24;;;;;;;6.75;4.43;;;;;;;2.61;100.00;101144.97;5021061;28;20041;-83
2024/01/13 11:07:53;;;;;;;5.78;4.82;;;;;;;2.60;100.00;101141.50;5038836;28;20684;-83
2024/01/13 11:10:32;;;;;;;7.45;4.72;;;;;;;2.54;100.00;101143.00;5029259;28;20059;-83
2024/01/13 11:13:12;;;;;;;8.38;5.22;;;;;;;2.58;100.00;101122.50;5049887;28;20045;-82
2024/01/13 11:15:49;;;;;;;9.73;5.55;;;;;;;2.54;100.00;101138.72;5027523;28;20059;-82
2024/01/13 11:18:19;;;;;;;6.88;5.10;;;;;;;2.49;100.00;101129.97;5018294;28;20052;-83
2024/01/13 11:21:07;;;;;;;7.93;5.05;;;;;;;2.48;100.00;101123.03;5033958;28;20083;-83
2024/01/13 11:23:42;;;;;;;7.45;4.00;;;;;;;2.44;100.00;101110.84;5019522;28;20300;-83